Verona, California
Current Conditions -  °F | °C
As of 11:53 PM on Saturday 25 Oct 2014 (Local Time) from KSMF Reporting Station
Few Clouds Few Clouds  
Wind Chill: 58°   Ceiling: Unl
Heat Index: 58°   Visibility: 10mi
Dew Point: 53°   Wind: 7mph
Humidity: 84%   Direction: 190°S
Pressure: 30.12"   Gusts: NA
Location:  38.8689°N, 121.569°W
Report Text: KSMF 260653Z 19006KT 10SM FEW120 14/12 A3012 RMK AO2 SLP198 T01440117 $
Loading
Personal Weather Stations






























Interactive Weather Map
Tropical Storm Tracking
New forecast layout! Learn more

10-Day Weather Forecast

Advertisements
Track Severe Weather on mobile